createdAt,value
2023-03-31T00:00:57.029Z,74.30
2023-03-31T00:03:23.596Z,74.30
2023-03-31T00:05:53.346Z,73.90
2023-03-31T00:08:19.844Z,73.50
2023-03-31T00:10:46.330Z,73.70
2023-03-31T00:13:12.816Z,74.10
2023-03-31T00:15:39.292Z,74.10
2023-03-31T00:18:05.849Z,74.00
2023-03-31T00:20:32.355Z,73.80
2023-03-31T00:22:58.834Z,73.20
2023-03-31T00:25:25.317Z,73.20
2023-03-31T00:27:51.960Z,73.10
2023-03-31T00:30:18.447Z,73.60
2023-03-31T00:32:44.983Z,73.50
2023-03-31T00:35:11.492Z,73.30
2023-03-31T00:37:37.973Z,73.40
2023-03-31T00:40:04.474Z,73.10
2023-03-31T00:42:30.922Z,73.10
2023-03-31T00:44:57.373Z,73.20
2023-03-31T00:47:23.799Z,73.40
2023-03-31T00:49:53.344Z,73.40
2023-03-31T00:52:19.802Z,73.40
2023-03-31T00:54:46.283Z,73.40
2023-03-31T00:57:12.853Z,73.70
2023-03-31T00:59:39.399Z,73.80
2023-03-31T01:02:05.881Z,73.70
2023-03-31T01:04:32.381Z,73.50
2023-03-31T01:06:58.860Z,73.50
2023-03-31T01:09:25.346Z,74.00
2023-03-31T01:11:51.825Z,73.90
2023-03-31T01:14:18.298Z,74.50
2023-03-31T01:16:44.828Z,74.20
2023-03-31T01:19:11.374Z,73.90
2023-03-31T01:21:37.846Z,73.50
2023-03-31T01:24:04.327Z,72.90
2023-03-31T01:26:30.785Z,73.30
2023-03-31T01:28:57.272Z,73.00
2023-03-31T01:31:23.777Z,72.80
2023-03-31T01:33:50.264Z,72.80
2023-03-31T01:36:16.806Z,73.20
2023-03-31T01:38:43.367Z,73.20
2023-03-31T01:41:11.404Z,73.00
2023-03-31T01:43:37.883Z,72.70
2023-03-31T01:46:04.597Z,73.30
2023-03-31T01:48:31.190Z,73.50
2023-03-31T01:50:57.682Z,73.90
2023-03-31T01:53:24.155Z,74.00
2023-03-31T01:55:50.666Z,74.30
2023-03-31T01:58:17.157Z,73.20
2023-03-31T02:00:43.647Z,73.40
2023-03-31T02:03:10.175Z,73.60
2023-03-31T02:05:36.767Z,73.70
2023-03-31T02:08:03.242Z,73.50
2023-03-31T02:10:29.756Z,73.60
2023-03-31T02:12:56.245Z,73.20
2023-03-31T02:15:22.746Z,73.30
2023-03-31T02:17:49.205Z,73.70
2023-03-31T02:20:15.704Z,74.00
2023-03-31T02:22:42.205Z,73.70
2023-03-31T02:25:08.685Z,73.80
2023-03-31T02:27:35.165Z,73.80
2023-03-31T02:30:01.648Z,74.00
2023-03-31T02:32:28.158Z,73.40
2023-03-31T02:34:54.689Z,73.20
2023-03-31T02:37:21.121Z,73.20
2023-03-31T02:39:47.606Z,72.90
2023-03-31T02:42:14.092Z,72.70
2023-03-31T02:44:40.578Z,72.60
2023-03-31T02:47:07.064Z,72.60
2023-03-31T02:49:33.541Z,72.40
2023-03-31T02:52:00.029Z,72.70
2023-03-31T02:54:26.525Z,72.30
2023-03-31T02:56:53.063Z,72.30
2023-03-31T02:59:19.550Z,72.60
2023-03-31T03:01:46.122Z,72.50
2023-03-31T03:04:12.697Z,73.80
2023-03-31T03:06:39.205Z,73.50
2023-03-31T03:09:05.678Z,72.80
2023-03-31T03:11:32.184Z,73.20
2023-03-31T03:13:58.926Z,73.30
2023-03-31T03:16:25.494Z,73.70
2023-03-31T03:18:52.016Z,73.60
2023-03-31T03:21:18.495Z,73.60
2023-03-31T03:23:45.006Z,73.50
2023-03-31T03:26:11.507Z,74.70
2023-03-31T03:28:37.969Z,75.00
2023-03-31T03:31:04.577Z,74.10
2023-03-31T03:33:31.077Z,74.60
2023-03-31T03:35:57.638Z,73.20
2023-03-31T03:38:24.152Z,73.20
2023-03-31T03:40:50.641Z,72.80
2023-03-31T03:43:17.123Z,73.20
2023-03-31T03:45:43.615Z,72.80
2023-03-31T03:48:10.137Z,72.80
2023-03-31T03:50:36.665Z,72.80
2023-03-31T03:53:03.160Z,72.50
2023-03-31T03:55:29.658Z,72.70
2023-03-31T03:57:56.148Z,72.60
2023-03-31T04:00:22.619Z,72.40
2023-03-31T04:02:49.136Z,72.50
2023-03-31T04:05:15.736Z,72.40
2023-03-31T04:07:42.214Z,72.00
2023-03-31T04:10:08.700Z,72.20
2023-03-31T04:12:35.194Z,72.20
2023-03-31T04:15:01.654Z,72.70
2023-03-31T04:17:28.156Z,72.50
2023-03-31T04:19:54.646Z,72.20
2023-03-31T04:22:21.111Z,72.50
2023-03-31T04:24:47.575Z,71.90
2023-03-31T04:27:14.059Z,72.20
2023-03-31T04:29:40.534Z,72.10
2023-03-31T04:32:07.063Z,72.30
2023-03-31T04:34:33.619Z,71.90
2023-03-31T04:37:00.113Z,72.20
2023-03-31T04:39:26.596Z,71.90
2023-03-31T04:41:53.119Z,71.90
2023-03-31T04:44:19.599Z,71.70
2023-03-31T04:46:46.090Z,71.80
2023-03-31T04:49:12.564Z,71.90
2023-03-31T04:51:39.068Z,71.60
2023-03-31T04:54:05.546Z,71.50
2023-03-31T04:56:32.050Z,71.50
2023-03-31T04:58:58.533Z,71.50
2023-03-31T05:01:29.638Z,71.80
2023-03-31T05:03:56.125Z,72.00
2023-03-31T05:06:22.644Z,71.40
2023-03-31T05:08:49.133Z,71.90
2023-03-31T05:11:15.642Z,72.40
2023-03-31T05:13:42.107Z,72.40
2023-03-31T05:16:09.020Z,71.80
2023-03-31T05:18:35.735Z,71.90
2023-03-31T05:21:02.241Z,71.70
2023-03-31T05:23:28.716Z,71.80
2023-03-31T05:25:55.239Z,71.70
2023-03-31T05:28:21.708Z,71.50
2023-03-31T05:30:48.211Z,71.30
2023-03-31T05:33:14.681Z,71.80
2023-03-31T05:35:41.176Z,71.90
2023-03-31T05:38:07.698Z,71.40
2023-03-31T05:40:34.179Z,71.50
2023-03-31T05:43:00.665Z,71.60
2023-03-31T05:45:27.131Z,71.20
2023-03-31T05:47:53.637Z,71.10
2023-03-31T05:50:20.150Z,71.10
2023-03-31T05:52:46.611Z,71.30
2023-03-31T05:55:13.082Z,71.20
2023-03-31T05:57:39.582Z,71.40
2023-03-31T06:00:06.067Z,71.50
2023-03-31T06:02:32.657Z,71.00
2023-03-31T06:04:59.201Z,71.00
2023-03-31T06:07:25.689Z,70.70
2023-03-31T06:09:52.161Z,70.10
2023-03-31T06:12:18.664Z,71.00
2023-03-31T06:14:47.597Z,71.30
2023-03-31T06:17:14.112Z,71.50
2023-03-31T06:19:40.598Z,71.40
2023-03-31T06:22:07.096Z,71.30
2023-03-31T06:24:33.564Z,71.40
2023-03-31T06:27:00.071Z,71.40
2023-03-31T06:29:26.587Z,71.70
2023-03-31T06:31:53.071Z,71.90
2023-03-31T06:34:21.362Z,71.50
2023-03-31T06:36:48.070Z,71.60
2023-03-31T06:39:14.542Z,71.90
2023-03-31T06:41:40.967Z,72.30
2023-03-31T06:44:07.445Z,72.10
2023-03-31T06:46:34.031Z,72.50
2023-03-31T06:49:00.572Z,72.80
2023-03-31T06:51:27.053Z,72.10
2023-03-31T06:53:53.550Z,71.90
2023-03-31T06:56:23.676Z,71.70
2023-03-31T06:58:50.167Z,71.90
2023-03-31T07:01:16.656Z,71.90
2023-03-31T07:03:43.226Z,72.20
2023-03-31T07:06:09.949Z,71.80
2023-03-31T07:08:36.503Z,72.20
2023-03-31T07:11:03.034Z,71.90
2023-03-31T07:13:29.550Z,71.60
2023-03-31T07:15:56.114Z,72.60
2023-03-31T07:18:22.671Z,72.40
2023-03-31T07:20:49.159Z,72.50
2023-03-31T07:23:15.649Z,72.40
2023-03-31T07:25:42.125Z,72.60
2023-03-31T07:28:08.619Z,73.30
2023-03-31T07:30:35.103Z,73.20
2023-03-31T07:33:01.635Z,72.50
2023-03-31T07:35:28.178Z,72.50
2023-03-31T07:37:57.961Z,73.00
2023-03-31T07:40:24.456Z,74.10
2023-03-31T07:42:50.937Z,74.90
2023-03-31T07:45:17.427Z,74.50
2023-03-31T07:47:43.920Z,74.00
2023-03-31T07:50:10.413Z,73.50
2023-03-31T07:52:36.900Z,73.50
2023-03-31T07:55:05.733Z,73.00
2023-03-31T07:57:32.262Z,72.60
2023-03-31T07:59:58.786Z,72.80
2023-03-31T08:02:25.368Z,72.50
2023-03-31T08:04:51.899Z,72.40
2023-03-31T08:07:18.398Z,72.60
2023-03-31T08:09:44.873Z,72.70
2023-03-31T08:12:11.357Z,72.50
2023-03-31T08:14:41.132Z,72.40
2023-03-31T08:17:08.115Z,72.50
2023-03-31T08:19:34.596Z,72.90
2023-03-31T08:22:01.059Z,73.30
2023-03-31T08:24:27.567Z,74.30
2023-03-31T08:26:54.041Z,74.40
2023-03-31T08:29:20.536Z,74.80
2023-03-31T08:31:47.046Z,75.00
2023-03-31T08:34:13.590Z,74.80
2023-03-31T08:36:40.057Z,74.20
2023-03-31T08:39:06.607Z,74.50
2023-03-31T08:41:33.083Z,74.70
2023-03-31T08:43:59.589Z,75.00
2023-03-31T08:46:26.143Z,74.80
2023-03-31T08:48:52.676Z,74.80
2023-03-31T08:51:23.882Z,74.70
2023-03-31T08:53:50.368Z,75.00
2023-03-31T08:56:16.907Z,75.00
2023-03-31T08:58:43.429Z,74.80
2023-03-31T09:01:10.258Z,74.60
2023-03-31T09:03:36.997Z,74.80
2023-03-31T09:06:03.613Z,75.10
2023-03-31T09:08:30.120Z,74.50
2023-03-31T09:10:56.615Z,74.50
2023-03-31T09:13:23.097Z,74.30
2023-03-31T09:15:49.590Z,74.70
2023-03-31T09:18:16.065Z,75.50
2023-03-31T09:20:42.567Z,75.70
2023-03-31T09:23:09.048Z,75.00
2023-03-31T09:25:35.531Z,74.80
2023-03-31T09:28:02.023Z,75.20
2023-03-31T09:30:28.531Z,75.20
2023-03-31T09:32:55.045Z,74.90
2023-03-31T09:35:21.640Z,74.70
2023-03-31T09:37:48.147Z,74.50
2023-03-31T09:40:14.639Z,73.80
2023-03-31T09:42:41.124Z,74.00
2023-03-31T09:45:07.604Z,73.80
2023-03-31T09:47:34.091Z,74.10
2023-03-31T09:50:00.638Z,73.80
2023-03-31T09:52:27.652Z,73.20
2023-03-31T09:54:54.172Z,73.30
2023-03-31T09:57:20.691Z,73.20
2023-03-31T09:59:47.245Z,73.10
2023-03-31T10:02:13.720Z,72.90
2023-03-31T10:04:40.215Z,72.90
2023-03-31T10:07:06.729Z,73.70
2023-03-31T10:09:33.210Z,73.70
2023-03-31T10:11:59.688Z,73.50
2023-03-31T10:14:26.165Z,73.70
2023-03-31T10:16:52.638Z,73.20
2023-03-31T10:19:19.117Z,73.40
2023-03-31T10:21:45.596Z,73.50
2023-03-31T10:24:12.100Z,73.00
2023-03-31T10:26:38.602Z,73.00
2023-03-31T10:29:05.085Z,72.90
2023-03-31T10:31:31.608Z,72.70
2023-03-31T10:33:58.082Z,72.90
2023-03-31T10:36:24.582Z,73.50
2023-03-31T10:38:51.062Z,73.50
2023-03-31T10:41:17.570Z,73.80
2023-03-31T10:43:44.100Z,73.80
2023-03-31T10:46:10.645Z,74.90
2023-03-31T10:48:37.208Z,75.50
2023-03-31T10:51:03.693Z,76.30
2023-03-31T10:53:31.271Z,76.20
2023-03-31T10:55:57.754Z,76.00
2023-03-31T10:58:24.222Z,75.80
2023-03-31T11:00:50.718Z,74.80
2023-03-31T11:03:17.315Z,74.80
2023-03-31T11:05:43.869Z,74.80
2023-03-31T11:08:10.359Z,74.70
2023-03-31T11:10:36.902Z,74.80
2023-03-31T11:13:03.393Z,74.70
2023-03-31T11:15:29.941Z,74.90
2023-03-31T11:17:56.441Z,74.80
2023-03-31T11:20:22.994Z,74.60
2023-03-31T11:22:49.702Z,74.60
2023-03-31T11:25:16.525Z,74.00
2023-03-31T11:27:43.004Z,74.10
2023-03-31T11:30:09.493Z,74.10
2023-03-31T11:32:36.006Z,74.30
2023-03-31T11:35:02.505Z,75.40
2023-03-31T11:37:28.982Z,76.30
2023-03-31T11:39:55.474Z,76.00
2023-03-31T11:42:21.957Z,76.00
2023-03-31T11:44:48.476Z,76.00
2023-03-31T11:47:15.144Z,75.70
2023-03-31T11:49:41.665Z,75.50
2023-03-31T11:52:08.145Z,74.90
2023-03-31T11:54:34.611Z,74.80
2023-03-31T11:57:01.072Z,75.20
2023-03-31T11:59:27.607Z,76.00
2023-03-31T12:01:54.078Z,75.50
2023-03-31T12:04:20.584Z,75.50
2023-03-31T12:06:47.086Z,75.00
2023-03-31T12:09:13.561Z,74.40
2023-03-31T12:11:40.053Z,73.70
2023-03-31T12:14:06.530Z,74.00
2023-03-31T12:16:33.181Z,73.90
2023-03-31T12:18:59.701Z,73.90
2023-03-31T12:21:26.187Z,73.50
2023-03-31T12:23:52.681Z,73.20
2023-03-31T12:26:19.177Z,73.50
2023-03-31T12:28:45.662Z,73.50
2023-03-31T12:31:12.333Z,73.30
2023-03-31T12:33:38.817Z,73.70
2023-03-31T12:36:05.596Z,72.80
2023-03-31T12:38:32.217Z,72.90
2023-03-31T12:40:58.715Z,72.90
2023-03-31T12:43:25.210Z,73.20
2023-03-31T12:45:51.713Z,73.00
2023-03-31T12:48:18.197Z,73.40
2023-03-31T12:50:44.703Z,73.40
2023-03-31T12:53:11.179Z,72.90
2023-03-31T12:55:37.680Z,73.10
2023-03-31T12:58:04.200Z,73.20
2023-03-31T13:00:30.727Z,73.10
2023-03-31T13:02:57.283Z,73.30
2023-03-31T13:05:23.785Z,73.10
2023-03-31T13:07:50.271Z,73.10
2023-03-31T13:10:16.849Z,73.10
2023-03-31T13:12:43.350Z,72.70
2023-03-31T13:15:09.886Z,72.70
2023-03-31T13:17:36.401Z,73.00
2023-03-31T13:20:02.898Z,72.60
2023-03-31T13:22:29.381Z,72.20
2023-03-31T13:24:55.850Z,72.90
2023-03-31T13:27:22.333Z,73.00
2023-03-31T13:29:48.813Z,73.50
2023-03-31T13:32:15.320Z,73.30
2023-03-31T13:34:41.815Z,73.40
2023-03-31T13:37:08.292Z,73.40
2023-03-31T13:39:34.800Z,73.20
2023-03-31T13:42:01.271Z,73.80
2023-03-31T13:44:27.743Z,73.70
2023-03-31T13:46:54.261Z,73.50
2023-03-31T13:49:20.820Z,74.40
2023-03-31T13:51:47.353Z,73.20
2023-03-31T13:54:13.822Z,73.60
2023-03-31T13:56:40.292Z,73.90
2023-03-31T13:59:06.783Z,73.50
2023-03-31T14:01:33.305Z,73.80
2023-03-31T14:03:59.768Z,73.70
2023-03-31T14:06:26.256Z,73.90
2023-03-31T14:08:52.743Z,74.20
2023-03-31T14:11:19.252Z,73.00
2023-03-31T14:13:45.717Z,73.30
2023-03-31T14:16:12.662Z,73.50
2023-03-31T14:18:39.346Z,73.80
2023-03-31T14:21:05.866Z,73.90
2023-03-31T14:23:32.356Z,72.40
2023-03-31T14:25:58.833Z,72.90
2023-03-31T14:28:25.330Z,73.00
2023-03-31T14:30:51.823Z,73.70
2023-03-31T14:33:18.320Z,73.80
2023-03-31T14:35:44.838Z,74.00
2023-03-31T14:38:11.304Z,73.10
2023-03-31T14:40:37.777Z,73.80
2023-03-31T14:43:04.251Z,73.70
2023-03-31T14:45:30.726Z,73.90
2023-03-31T14:47:57.395Z,73.30
2023-03-31T14:50:23.941Z,73.70
2023-03-31T14:52:50.433Z,73.50
2023-03-31T14:55:16.901Z,72.30
2023-03-31T14:57:43.385Z,73.40
2023-03-31T15:00:09.885Z,72.80
2023-03-31T15:02:36.440Z,72.70
2023-03-31T15:05:03.058Z,72.90
2023-03-31T15:07:29.576Z,73.10
2023-03-31T15:09:56.052Z,73.40
2023-03-31T15:12:22.640Z,73.30
2023-03-31T15:14:49.120Z,73.10
2023-03-31T15:17:15.601Z,73.30
2023-03-31T15:19:42.074Z,73.00
2023-03-31T15:22:08.573Z,72.80
2023-03-31T15:24:35.078Z,72.70
2023-03-31T15:27:01.615Z,72.70
2023-03-31T15:29:28.131Z,72.70
2023-03-31T15:31:54.692Z,72.40
2023-03-31T15:34:21.597Z,72.50
2023-03-31T15:36:48.497Z,72.40
2023-03-31T15:39:14.988Z,72.70
2023-03-31T15:41:41.463Z,72.70
2023-03-31T15:44:07.936Z,73.30
2023-03-31T15:46:34.449Z,73.50
2023-03-31T15:49:00.932Z,74.10
2023-03-31T15:51:27.427Z,74.70
2023-03-31T15:53:53.912Z,74.20
2023-03-31T15:56:20.405Z,74.10
2023-03-31T15:58:46.887Z,74.00
2023-03-31T16:01:13.519Z,74.30
2023-03-31T16:03:40.008Z,74.00
2023-03-31T16:06:06.503Z,74.00
2023-03-31T16:08:33.010Z,73.30
2023-03-31T16:10:59.494Z,74.20
2023-03-31T16:13:25.984Z,74.20
2023-03-31T16:15:52.522Z,74.20
2023-03-31T16:18:19.054Z,74.50
2023-03-31T16:20:45.524Z,74.60
2023-03-31T16:23:12.014Z,74.50
2023-03-31T16:25:38.504Z,74.80
2023-03-31T16:28:04.981Z,75.00
2023-03-31T16:30:31.486Z,75.50
2023-03-31T16:32:59.555Z,75.30
2023-03-31T16:35:27.295Z,75.30
2023-03-31T16:37:53.782Z,74.80
2023-03-31T16:40:20.277Z,74.90
2023-03-31T16:42:46.758Z,75.30
2023-03-31T16:45:14.852Z,74.60
2023-03-31T16:47:44.519Z,74.10
2023-03-31T16:50:11.913Z,74.20
2023-03-31T16:52:38.401Z,74.60
2023-03-31T16:55:04.899Z,75.00
2023-03-31T16:57:31.451Z,74.90
2023-03-31T16:59:59.081Z,74.70
2023-03-31T17:02:25.722Z,75.00
2023-03-31T17:04:54.248Z,75.80
2023-03-31T17:07:22.983Z,75.60
2023-03-31T17:09:49.487Z,75.30
2023-03-31T17:12:15.985Z,75.20
2023-03-31T17:14:42.520Z,75.40
2023-03-31T17:17:09.051Z,75.70
2023-03-31T17:19:35.554Z,75.60
2023-03-31T17:22:02.047Z,76.00
2023-03-31T17:24:28.610Z,75.80
2023-03-31T17:26:55.107Z,75.60
2023-03-31T17:29:21.600Z,75.00
2023-03-31T17:31:48.132Z,75.20
2023-03-31T17:34:14.638Z,75.40
2023-03-31T17:36:41.143Z,75.00
2023-03-31T17:39:07.625Z,75.10
2023-03-31T17:41:34.093Z,75.30
2023-03-31T17:44:00.563Z,74.50
2023-03-31T17:46:27.086Z,74.30
2023-03-31T17:48:53.615Z,74.50
2023-03-31T17:51:24.222Z,74.60
2023-03-31T17:53:50.710Z,74.10
2023-03-31T17:56:17.196Z,74.60
2023-03-31T17:58:43.679Z,75.30
2023-03-31T18:01:10.173Z,75.10
2023-03-31T18:03:36.673Z,75.20
2023-03-31T18:06:03.169Z,75.10
2023-03-31T18:08:29.648Z,75.00
2023-03-31T18:10:56.141Z,75.90
2023-03-31T18:13:22.616Z,75.70
2023-03-31T18:15:49.154Z,76.10
2023-03-31T18:18:15.719Z,75.90
2023-03-31T18:20:42.188Z,75.80
2023-03-31T18:23:08.652Z,76.10
2023-03-31T18:25:35.322Z,75.70
2023-03-31T18:28:02.055Z,75.80
2023-03-31T18:30:28.538Z,76.30
2023-03-31T18:32:55.068Z,76.20
2023-03-31T18:35:21.708Z,76.60
2023-03-31T18:37:48.186Z,76.50
2023-03-31T18:40:14.664Z,76.30
2023-03-31T18:42:41.171Z,76.80
2023-03-31T18:45:07.636Z,77.00
2023-03-31T18:47:36.260Z,77.00
2023-03-31T18:50:02.754Z,77.00
2023-03-31T18:52:29.252Z,77.00
2023-03-31T18:54:55.734Z,76.80
2023-03-31T18:57:22.252Z,77.00
2023-03-31T18:59:48.797Z,76.70
2023-03-31T19:02:15.310Z,76.90
2023-03-31T19:04:41.842Z,76.90
2023-03-31T19:07:08.308Z,77.00
2023-03-31T19:09:34.809Z,77.10
2023-03-31T19:12:01.289Z,77.00
2023-03-31T19:14:27.764Z,77.00
2023-03-31T19:16:54.283Z,77.20
2023-03-31T19:19:20.836Z,77.00
2023-03-31T19:21:47.305Z,76.70
2023-03-31T19:24:13.785Z,76.60
2023-03-31T19:26:40.282Z,77.00
2023-03-31T19:29:06.764Z,77.00
2023-03-31T19:31:33.375Z,77.80
2023-03-31T19:33:59.880Z,76.80
2023-03-31T19:36:26.346Z,77.00
2023-03-31T19:38:52.824Z,77.00
2023-03-31T19:41:19.305Z,77.10
2023-03-31T19:43:45.786Z,76.70
2023-03-31T19:46:12.406Z,77.00
2023-03-31T19:48:38.934Z,77.00
2023-03-31T19:51:05.396Z,77.40
2023-03-31T19:53:31.874Z,77.40
2023-03-31T19:55:58.361Z,77.50
2023-03-31T19:58:24.883Z,77.60
2023-03-31T20:00:51.353Z,77.60
2023-03-31T20:03:18.031Z,77.60
2023-03-31T20:05:44.663Z,77.00
2023-03-31T20:08:11.146Z,76.90
2023-03-31T20:10:37.711Z,77.10
2023-03-31T20:13:04.244Z,77.00
2023-03-31T20:15:31.135Z,77.10
2023-03-31T20:17:57.775Z,77.30
2023-03-31T20:20:24.280Z,77.20
2023-03-31T20:22:50.756Z,77.20
2023-03-31T20:25:17.232Z,77.30
2023-03-31T20:27:43.746Z,77.20
2023-03-31T20:30:10.221Z,77.50
2023-03-31T20:32:36.734Z,77.20
2023-03-31T20:35:03.219Z,77.10
2023-03-31T20:37:29.684Z,77.50
2023-03-31T20:39:56.160Z,77.80
2023-03-31T20:42:22.645Z,77.60
2023-03-31T20:44:49.152Z,77.40
2023-03-31T20:47:15.672Z,77.40
2023-03-31T20:49:42.160Z,77.20
2023-03-31T20:52:08.638Z,76.60
2023-03-31T20:54:35.115Z,76.50
2023-03-31T20:57:01.633Z,77.00
2023-03-31T20:59:28.146Z,77.40
2023-03-31T21:01:54.627Z,77.70
2023-03-31T21:04:21.109Z,77.90
2023-03-31T21:06:47.609Z,77.70
2023-03-31T21:09:18.404Z,77.80
2023-03-31T21:11:44.901Z,77.90
2023-03-31T21:14:11.363Z,78.10
2023-03-31T21:16:37.897Z,77.70
2023-03-31T21:19:04.428Z,77.90
2023-03-31T21:21:30.909Z,77.70
2023-03-31T21:23:57.393Z,77.90
2023-03-31T21:26:23.879Z,77.90
2023-03-31T21:28:50.383Z,77.80
2023-03-31T21:31:16.871Z,78.00
2023-03-31T21:33:43.438Z,78.10
2023-03-31T21:36:09.966Z,78.00
2023-03-31T21:38:36.488Z,78.00
2023-03-31T21:41:02.981Z,78.10
2023-03-31T21:43:29.479Z,78.00
2023-03-31T21:45:55.999Z,77.80
2023-03-31T21:48:22.503Z,77.80
2023-03-31T21:50:48.959Z,78.00
2023-03-31T21:53:15.458Z,77.90
2023-03-31T21:55:41.936Z,77.90
2023-03-31T21:58:08.448Z,78.20
2023-03-31T22:00:35.000Z,78.20
2023-03-31T22:03:22.257Z,78.20
2023-03-31T22:05:47.967Z,78.30
2023-03-31T22:08:14.451Z,78.30
2023-03-31T22:10:40.937Z,78.10
2023-03-31T22:13:07.460Z,78.10
2023-03-31T22:15:34.097Z,78.40
2023-03-31T22:18:00.826Z,78.40
2023-03-31T22:20:27.301Z,78.20
2023-03-31T22:22:53.818Z,78.50
2023-03-31T22:25:20.302Z,78.00
2023-03-31T22:27:46.776Z,77.90
2023-03-31T22:30:13.257Z,78.10
2023-03-31T22:32:39.806Z,78.20
2023-03-31T22:35:06.274Z,78.40
2023-03-31T22:37:32.754Z,78.30
2023-03-31T22:39:59.242Z,78.30
2023-03-31T22:42:25.708Z,78.60
2023-03-31T22:44:52.179Z,78.00
2023-03-31T22:47:18.660Z,77.90
2023-03-31T22:49:45.143Z,77.90
2023-03-31T22:52:11.617Z,78.20
2023-03-31T22:54:38.089Z,78.10
2023-03-31T22:57:04.582Z,78.20
2023-03-31T22:59:31.090Z,78.40
2023-03-31T23:01:57.561Z,78.20
2023-03-31T23:04:24.089Z,78.00
2023-03-31T23:06:50.575Z,77.80
2023-03-31T23:09:17.091Z,77.70
2023-03-31T23:11:43.564Z,77.70
2023-03-31T23:14:10.059Z,77.70
2023-03-31T23:16:36.583Z,77.50
2023-03-31T23:19:03.142Z,77.70
2023-03-31T23:21:29.687Z,77.60
2023-03-31T23:23:56.190Z,77.70
2023-03-31T23:26:22.655Z,77.80
2023-03-31T23:28:49.168Z,78.00
2023-03-31T23:31:15.652Z,77.90
2023-03-31T23:33:42.185Z,77.90
2023-03-31T23:36:08.670Z,77.90
2023-03-31T23:38:35.123Z,77.80
2023-03-31T23:41:01.605Z,77.80
2023-03-31T23:43:28.072Z,78.00
2023-03-31T23:45:54.559Z,77.70
2023-03-31T23:48:21.044Z,77.60
2023-03-31T23:50:47.530Z,77.60
2023-03-31T23:53:14.016Z,77.80
2023-03-31T23:55:40.550Z,77.50
2023-03-31T23:58:07.039Z,77.20
